Home > Products > Valid Products > TAF

000
FTUS41 KRNK 051924 AAA
TAFBLF
TAF AMD
KBLF 051924Z 0519/0618 35011KT P6SM FEW045
     FM052300 27004KT P6SM SCT250
     FM061400 23007KT P6SM OVC200=



000
FTUS41 KRNK 051924 AAA
TAFDAN
TAF AMD
KDAN 051924Z 0519/0618 35011KT P6SM SKC
     FM052200 35005KT P6SM SKC
     FM061400 15003KT P6SM BKN250=



000
FTUS41 KRNK 051924 AAA
TAFDAN
TAF AMD
KDAN 051924Z 0519/0618 35011KT P6SM SKC
     FM052200 35005KT P6SM SKC
     FM061400 15003KT P6SM BKN250=



000
FTUS41 KRNK 051924 AAA
TAFBLF
TAF AMD
KBLF 051924Z 0519/0618 35011KT P6SM FEW045
     FM052300 27004KT P6SM SCT250
     FM061400 23007KT P6SM OVC200=



000
FTUS41 KRNK 051924 AAA
TAFDAN
TAF AMD
KDAN 051924Z 0519/0618 35011KT P6SM SKC
     FM052200 35005KT P6SM SKC
     FM061400 15003KT P6SM BKN250=



000
FTUS41 KRNK 051720
TAFLYH
TAF
KLYH 051720Z 0518/0618 32010G20KT P6SM SKC
     FM052200 34004KT P6SM SKC
     FM061400 20003KT P6SM BKN250=



000
FTUS41 KRNK 051720
TAFROA
TAF
KROA 051720Z 0518/0618 33015G25KT P6SM SKC
     FM052200 32006KT P6SM SCT250
     FM061400 23005KT P6SM BKN200=



000
FTUS41 KRNK 051720
TAFBLF
TAF
KBLF 051720Z 0518/0618 32008G18KT P6SM SKC
     FM052300 27004KT P6SM SCT250
     FM061400 23007KT P6SM OVC200=



000
FTUS41 KRNK 051720
TAFLYH
TAF
KLYH 051720Z 0518/0618 32010G20KT P6SM SKC
     FM052200 34004KT P6SM SKC
     FM061400 20003KT P6SM BKN250=



000
FTUS41 KRNK 051720
TAFROA
TAF
KROA 051720Z 0518/0618 33015G25KT P6SM SKC
     FM052200 32006KT P6SM SCT250
     FM061400 23005KT P6SM BKN200=



000
FTUS41 KRNK 051720
TAFDAN
TAF
KDAN 051720Z 0518/0618 32012G22KT P6SM SKC
     FM052200 35005KT P6SM SKC
     FM061400 15003KT P6SM BKN250=



000
FTUS41 KRNK 051720
TAFROA
TAF
KROA 051720Z 0518/0618 33015G25KT P6SM SKC
     FM052200 32006KT P6SM SCT250
     FM061400 23005KT P6SM BKN200=



000
FTUS41 KRNK 051720
TAFDAN
TAF
KDAN 051720Z 0518/0618 32012G22KT P6SM SKC
     FM052200 35005KT P6SM SKC
     FM061400 15003KT P6SM BKN250=



000
FTUS41 KRNK 051720
TAFLWB
TAF
KLWB 051720Z 0518/0618 34010KT P6SM SKC
     FM052300 00000KT P6SM SCT250
     FM061500 23005KT P6SM OVC200=



000
FTUS41 KRNK 051720
TAFBLF
TAF
KBLF 051720Z 0518/0618 32008G18KT P6SM SKC
     FM052300 27004KT P6SM SCT250
     FM061400 23007KT P6SM OVC200=



000
FTUS41 KRNK 051720
TAFLWB
TAF
KLWB 051720Z 0518/0618 34010KT P6SM SKC
     FM052300 00000KT P6SM SCT250
     FM061500 23005KT P6SM OVC200=



000
FTUS41 KRNK 051720
TAFLWB
TAF
KLWB 051720Z 0518/0618 34010KT P6SM SKC
     FM052300 00000KT P6SM SCT250
     FM061500 23005KT P6SM OVC200=



000
FTUS41 KRNK 051720
TAFDAN
TAF
KDAN 051720Z 0518/0618 32012G22KT P6SM SKC
     FM052200 35005KT P6SM SKC
     FM061400 15003KT P6SM BKN250=



000
FTUS41 KRNK 051720
TAFBLF
TAF
KBLF 051720Z 0518/0618 32008G18KT P6SM SKC
     FM052300 27004KT P6SM SCT250
     FM061400 23007KT P6SM OVC200=



000
FTUS41 KRNK 051720
TAFLYH
TAF
KLYH 051720Z 0518/0618 32010G20KT P6SM SKC
     FM052200 34004KT P6SM SKC
     FM061400 20003KT P6SM BKN250=



000
FTUS41 KRNK 051516 AAA
TAFLWB
TAF AMD
KLWB 051516Z 0515/0612 28009KT P6SM SCT030
     FM051900 29006KT P6SM SKC
     FM060000 00000KT P6SM SCT250=



000
FTUS41 KRNK 051516 AAA
TAFLWB
TAF AMD
KLWB 051516Z 0515/0612 28009KT P6SM SCT030
     FM051900 29006KT P6SM SKC
     FM060000 00000KT P6SM SCT250=



000
FTUS41 KRNK 051516 AAA
TAFLWB
TAF AMD
KLWB 051516Z 0515/0612 28009KT P6SM SCT030
     FM051900 29006KT P6SM SKC
     FM060000 00000KT P6SM SCT250=



000
FTUS41 KRNK 051515 AAA
TAFBLF
TAF AMD
KBLF 051515Z 0515/0612 30008KT P6SM SKC
     FM052000 29006KT P6SM SKC
     FM052300 27004KT P6SM SCT250=



000
FTUS41 KRNK 051430 AAA
TAFLYH
TAF AMD
KLYH 051430Z 0515/0612 32010G20KT P6SM SKC
     FM051800 32010KT P6SM SCT120
     FM052200 34004KT P6SM SKC=



000
FTUS41 KRNK 051120
TAFLWB
TAF
KLWB 051120Z 0512/0612 33010G18KT P6SM SCT030
      TEMPO 0512/0514 BKN030
     FM051900 29007KT P6SM SKC
     FM060000 00000KT P6SM SCT250=



000
FTUS41 KRNK 051120
TAFDAN
TAF
KDAN 051120Z 0512/0612 33009G19KT P6SM SCT040 BKN080
     FM051400 32012G20KT P6SM SCT120
     FM052200 35004KT P6SM SKC=



000
FTUS41 KRNK 051120
TAFBLF
TAF
KBLF 051120Z 0512/0612 30011G19KT P6SM SCT024
      TEMPO 0512/0514 BKN024
     FM052000 29008KT P6SM SKC
     FM052300 27004KT P6SM SCT250=



000
FTUS41 KRNK 051120
TAFROA
TAF
KROA 051120Z 0512/0612 31015G22KT P6SM BKN040
     FM051500 32013G26KT P6SM SKC
     FM052200 32006KT P6SM SKC=



000
FTUS41 KRNK 051120
TAFLWB
TAF
KLWB 051120Z 0512/0612 33010G18KT P6SM SCT030
      TEMPO 0512/0514 BKN030
     FM051900 29007KT P6SM SKC
     FM060000 00000KT P6SM SCT250=



000
FTUS41 KRNK 051120
TAFLYH
TAF
KLYH 051120Z 0512/0612 32007KT P6SM SCT040 OVC110
     FM051500 32010G20KT P6SM SCT120
     FM052200 34004KT P6SM SKC=



000
FTUS41 KRNK 051120
TAFROA
TAF
KROA 051120Z 0512/0612 31015G22KT P6SM BKN040
     FM051500 32013G26KT P6SM SKC
     FM052200 32006KT P6SM SKC=



000
FTUS41 KRNK 051120
TAFDAN
TAF
KDAN 051120Z 0512/0612 33009G19KT P6SM SCT040 BKN080
     FM051400 32012G20KT P6SM SCT120
     FM052200 35004KT P6SM SKC=



000
FTUS41 KRNK 051120
TAFROA
TAF
KROA 051120Z 0512/0612 31015G22KT P6SM BKN040
     FM051500 32013G26KT P6SM SKC
     FM052200 32006KT P6SM SKC=



000
FTUS41 KRNK 051120
TAFBLF
TAF
KBLF 051120Z 0512/0612 30011G19KT P6SM SCT024
      TEMPO 0512/0514 BKN024
     FM052000 29008KT P6SM SKC
     FM052300 27004KT P6SM SCT250=



000
FTUS41 KRNK 051120
TAFLYH
TAF
KLYH 051120Z 0512/0612 32007KT P6SM SCT040 OVC110
     FM051500 32010G20KT P6SM SCT120
     FM052200 34004KT P6SM SKC=



000
FTUS41 KRNK 050826 AAA
TAFDAN
TAF AMD
KDAN 050826Z 0508/0606 33010KT P6SM -SN SCT013 OVC035
      TEMPO 0509/0510 OVC013
     FM051100 34011G24KT P6SM SCT035 BKN060
     FM051400 33014G24KT P6SM SKC
     FM052200 35004KT P6SM SKC=



000
FTUS41 KRNK 050520
TAFDAN
TAF
KDAN 050520Z 0506/0606 34012G18KT P6SM -RA BKN018 OVC023
     FM050900 35012G22KT P6SM -RASN OVC025
     FM051100 34013G25KT P6SM BKN035
     FM051400 33014G24KT P6SM SKC
     FM052200 35004KT P6SM SKC=



000
FTUS41 KRNK 050520
TAFDAN
TAF
KDAN 050520Z 0506/0606 34012G18KT P6SM -RA BKN018 OVC023
     FM050900 35012G22KT P6SM -RASN OVC025
     FM051100 34013G25KT P6SM BKN035
     FM051400 33014G24KT P6SM SKC
     FM052200 35004KT P6SM SKC=



000
FTUS41 KRNK 050520
TAFROA
TAF
KROA 050520Z 0506/0606 32010G24KT P6SM -SN OVC050
     FM051000 32015G28KT P6SM -SHSN BKN040
     FM051500 32013G26KT P6SM SKC
     FM052200 34006KT P6SM SCT250=



000
FTUS41 KRNK 050520
TAFBLF
TAF
KBLF 050520Z 0506/0606 31010G16KT P6SM OVC030
     FM050700 31011G21KT P6SM -SHSN OVC020
     FM051500 30013G25KT P6SM BKN025
     FM052100 29007KT P6SM SCT250=



000
FTUS41 KRNK 050520
TAFLWB
TAF
KLWB 050520Z 0506/0606 32008KT P6SM OVC035
     FM050700 32010G20KT P6SM -SHSN OVC025
     FM051500 30011G21KT P6SM BKN030
     FM052100 30004KT P6SM SCT250=



000
FTUS41 KRNK 050520
TAFLYH
TAF
KLYH 050520Z 0506/0606 05006KT P6SM -RASN FEW029 OVC040
     FM050700 35009G17KT P6SM -RASN OVC025
     FM051100 33009G18KT P6SM -SHSN BKN040
     FM051500 32010G20KT P6SM SKC
     FM052200 34004KT P6SM FEW250=



000
FTUS41 KRNK 042344
TAFBLF
TAF
KBLF 042344Z 0500/0524 31008KT P6SM OVC030
     FM050200 31009G17KT P6SM OVC023
     FM050600 31012G22KT P6SM -SHSN OVC015
     FM051500 30013G25KT P6SM SCT015 BKN025=



000
FTUS41 KRNK 042344
TAFLYH
TAF
KLYH 042344Z 0500/0524 01006KT P6SM BKN035 OVC100
     FM050400 36011G19KT P6SM -RASN SCT015 OVC025
     FM050800 34008G17KT P6SM -SN BKN020 OVC040
     FM051300 33009G18KT P6SM BKN040
     FM051500 32010G20KT P6SM SCT040=



000
FTUS41 KRNK 042344
TAFLWB
TAF
KLWB 042344Z 0500/0524 33006KT P6SM BKN035
     FM050200 33007KT P6SM OVC028
     FM050700 31010G20KT P6SM -SHSN OVC025
     FM051500 30011G21KT P6SM BKN030=



000
FTUS41 KRNK 042344
TAFDAN
TAF
KDAN 042344Z 0500/0524 36007KT P6SM BKN035 OVC090
     FM050200 35010KT P6SM -RA SCT025 OVC035
     FM050900 35012G21KT 5SM -RASN OVC025
     FM051300 34013G25KT P6SM BKN035
     FM051600 33015G25KT P6SM SKC=



000
FTUS41 KRNK 042344
TAFROA
TAF
KROA 042344Z 0500/0524 32007KT P6SM BKN050 OVC100
     FM050700 33012G20KT P6SM -RASN OVC045
     FM051000 32015G28KT P6SM BKN040
     FM051500 32013G26KT P6SM SCT035=



000
FTUS41 KRNK 042344
TAFLWB
TAF
KLWB 042344Z 0500/0524 33006KT P6SM BKN035
     FM050200 33007KT P6SM OVC028
     FM050700 31010G20KT P6SM -SHSN OVC025
     FM051500 30011G21KT P6SM BKN030=



000
FTUS41 KRNK 042344
TAFBLF
TAF
KBLF 042344Z 0500/0524 31008KT P6SM OVC030
     FM050200 31009G17KT P6SM OVC023
     FM050600 31012G22KT P6SM -SHSN OVC015
     FM051500 30013G25KT P6SM SCT015 BKN025=



000
FTUS41 KRNK 042344
TAFROA
TAF
KROA 042344Z 0500/0524 32007KT P6SM BKN050 OVC100
     FM050700 33012G20KT P6SM -RASN OVC045
     FM051000 32015G28KT P6SM BKN040
     FM051500 32013G26KT P6SM SCT035=



000
FTUS41 KRNK 042344
TAFLYH
TAF
KLYH 042344Z 0500/0524 01006KT P6SM BKN035 OVC100
     FM050400 36011G19KT P6SM -RASN SCT015 OVC025
     FM050800 34008G17KT P6SM -SN BKN020 OVC040
     FM051300 33009G18KT P6SM BKN040
     FM051500 32010G20KT P6SM SCT040=



000
FTUS41 KRNK 042344
TAFDAN
TAF
KDAN 042344Z 0500/0524 36007KT P6SM BKN035 OVC090
     FM050200 35010KT P6SM -RA SCT025 OVC035
     FM050900 35012G21KT 5SM -RASN OVC025
     FM051300 34013G25KT P6SM BKN035
     FM051600 33015G25KT P6SM SKC=



000
FTUS41 KRNK 042344
TAFROA
TAF
KROA 042344Z 0500/0524 32007KT P6SM BKN050 OVC100
     FM050700 33012G20KT P6SM -RASN OVC045
     FM051000 32015G28KT P6SM BKN040
     FM051500 32013G26KT P6SM SCT035=



000
FTUS41 KRNK 042344
TAFDAN
TAF
KDAN 042344Z 0500/0524 36007KT P6SM BKN035 OVC090
     FM050200 35010KT P6SM -RA SCT025 OVC035
     FM050900 35012G21KT 5SM -RASN OVC025
     FM051300 34013G25KT P6SM BKN035
     FM051600 33015G25KT P6SM SKC=



000
FTUS41 KRNK 042344
TAFLYH
TAF
KLYH 042344Z 0500/0524 01006KT P6SM BKN035 OVC100
     FM050400 36011G19KT P6SM -RASN SCT015 OVC025
     FM050800 34008G17KT P6SM -SN BKN020 OVC040
     FM051300 33009G18KT P6SM BKN040
     FM051500 32010G20KT P6SM SCT040=



000
FTUS41 KRNK 042344
TAFLWB
TAF
KLWB 042344Z 0500/0524 33006KT P6SM BKN035
     FM050200 33007KT P6SM OVC028
     FM050700 31010G20KT P6SM -SHSN OVC025
     FM051500 30011G21KT P6SM BKN030=



000
FTUS41 KRNK 042344
TAFBLF
TAF
KBLF 042344Z 0500/0524 31008KT P6SM OVC030
     FM050200 31009G17KT P6SM OVC023
     FM050600 31012G22KT P6SM -SHSN OVC015
     FM051500 30013G25KT P6SM SCT015 BKN025=



000
FTUS41 KRNK 041929 AAA
TAFBLF
TAF AMD
KBLF 041929Z 0419/0518 29007KT P6SM SCT025
     FM050100 31008G16KT P6SM OVC020
     FM050800 31012G22KT P6SM -SHSN BKN025
     FM051400 30013G25KT P6SM SCT025 BKN035=



000
FTUS41 KRNK 041929 AAA
TAFBLF
TAF AMD
KBLF 041929Z 0419/0518 29007KT P6SM SCT025
     FM050100 31008G16KT P6SM OVC020
     FM050800 31012G22KT P6SM -SHSN BKN025
     FM051400 30013G25KT P6SM SCT025 BKN035=



000
FTUS41 KRNK 041813 AAA
TAFLWB
TAF AMD
KLWB 041813Z 0418/0518 00000KT P6SM SCT025
      TEMPO 0419/0422 BKN025
     FM050100 32006KT P6SM OVC020
     FM050800 31010G20KT P6SM -SHSN OVC030
     FM051400 30011KT P6SM BKN040=



000
FTUS41 KRNK 041813 AAA
TAFLWB
TAF AMD
KLWB 041813Z 0418/0518 00000KT P6SM SCT025
      TEMPO 0419/0422 BKN025
     FM050100 32006KT P6SM OVC020
     FM050800 31010G20KT P6SM -SHSN OVC030
     FM051400 30011KT P6SM BKN040=



000
FTUS41 KRNK 041813 AAA
TAFLWB
TAF AMD
KLWB 041813Z 0418/0518 00000KT P6SM SCT025
      TEMPO 0419/0422 BKN025
     FM050100 32006KT P6SM OVC020
     FM050800 31010G20KT P6SM -SHSN OVC030
     FM051400 30011KT P6SM BKN040=



000
FTUS41 KRNK 041723
TAFROA
TAF
KROA 041723Z 0418/0518 30010G20KT P6SM SCT040 BKN150
     FM042000 32007KT P6SM SCT035 OVC100
     FM050400 32011KT P6SM -SN OVC035
     FM051000 32015G28KT P6SM BKN040
     FM051500 32013G26KT P6SM SCT050=



000
FTUS41 KRNK 041723
TAFBLF
TAF
KBLF 041723Z 0418/0518 29008KT P6SM OVC018
     FM042200 31008G16KT P6SM OVC020
     FM050800 31012G22KT P6SM -SHSN BKN025
     FM051400 30013G25KT P6SM SCT025 BKN035=



000
FTUS41 KRNK 041723
TAFDAN
TAF
KDAN 041723Z 0418/0518 35010KT P6SM OVC035
     FM050000 36007KT P6SM OVC030
     FM050400 35010KT P6SM -RA SCT025 OVC040
     FM050900 35012G21KT 4SM -SN OVC025
     FM051300 33013G25KT P6SM BKN045=



000
FTUS41 KRNK 041723
TAFLYH
TAF
KLYH 041723Z 0418/0518 36006KT P6SM OVC040
     FM042200 35005KT P6SM BKN035
     FM050400 35009G17KT P6SM -RASN OVC025
     FM050800 34008KT P6SM -SN BKN020 OVC040
     FM051300 31006KT P6SM BKN050=



000
FTUS41 KRNK 041723
TAFLWB
TAF
KLWB 041723Z 0418/0518 31005KT P6SM BKN025
     FM050100 32006KT P6SM OVC020
     FM050800 31010G20KT P6SM -SHSN OVC030
     FM051400 30011KT P6SM BKN040=



000
FTUS41 KRNK 041136
TAFLYH
TAF
KLYH 041136Z 0412/0512 31006KT P6SM SCT035 BKN250
      TEMPO 0412/0414 BKN035
     FM042200 35005KT P6SM BKN040
     FM050600 35009G17KT P6SM OVC045
     FM051000 34008KT P6SM SCT045=



000
FTUS41 KRNK 041136
TAFDAN
TAF
KDAN 041136Z 0412/0512 34006KT P6SM OVC030
     FM041700 36008KT P6SM OVC040
     FM050000 36007KT P6SM OVC030
     FM050900 35012G21KT P6SM BKN060=



000
FTUS41 KRNK 041136
TAFROA
TAF
KROA 041136Z 0412/0512 32009KT P6SM BKN250
     FM042000 32007KT P6SM SCT035 OVC100
     FM050300 32010G19KT P6SM BKN045
     FM050900 32013G24KT P6SM BKN060=



000
FTUS41 KRNK 041136
TAFLWB
TAF
KLWB 041136Z 0412/0512 29005KT P6SM OVC022
     FM041700 30006KT P6SM BKN035
     FM050100 32006KT P6SM OVC020
     FM050700 31009G17KT P6SM BKN040=



000
FTUS41 KRNK 041136
TAFBLF
TAF
KBLF 041136Z 0412/0512 31007KT P6SM BKN015
     FM042200 31008G16KT P6SM OVC015
     FM050900 31012G21KT P6SM BKN025=



000
FTUS41 KRNK 041000 AAC
TAFDAN
TAF AMD
KDAN 041000Z 0410/0506 22005KT 5SM BR SCT001 OVC015
      TEMPO 0410/0412 1SM BR OVC002
     FM041200 32006KT P6SM BKN040
     FM041500 35010KT P6SM -RA OVC040=



000
FTUS41 KRNK 040959 AAA
TAFLYH
TAF AMD
KLYH 040959Z 0410/0506 00000KT P6SM SCT001
      TEMPO 0410/0412 3SM BR OVC001
     FM041200 34005KT P6SM BKN040
     FM041600 35006KT P6SM OVC100
     FM042300 01006KT P6SM OVC050=



000
FTUS41 KRNK 040702 AAB
TAFDAN
TAF AMD
KDAN 040702Z 0407/0506 22005KT 5SM BR BKN009
      TEMPO 0407/0410 1SM BR OVC002
     FM041100 32006KT P6SM BKN040
     FM041500 35010KT P6SM -RA OVC040=



000
FTUS41 KRNK 040702 AAB
TAFDAN
TAF AMD
KDAN 040702Z 0407/0506 22005KT 5SM BR BKN009
      TEMPO 0407/0410 1SM BR OVC002
     FM041100 32006KT P6SM BKN040
     FM041500 35010KT P6SM -RA OVC040=



000
FTUS41 KRNK 040702 AAB
TAFDAN
TAF AMD
KDAN 040702Z 0407/0506 22005KT 5SM BR BKN009
      TEMPO 0407/0410 1SM BR OVC002
     FM041100 32006KT P6SM BKN040
     FM041500 35010KT P6SM -RA OVC040=



000
FTUS41 KRNK 040700 AAA
TAFROA
TAF AMD
KROA 040700Z 0407/0506 27008KT P6SM BKN100
     FM041300 31010KT P6SM BKN120
     FM042000 32008KT P6SM OVC100=



000
FTUS41 KRNK 040700 AAA
TAFROA
TAF AMD
KROA 040700Z 0407/0506 27008KT P6SM BKN100
     FM041300 31010KT P6SM BKN120
     FM042000 32008KT P6SM OVC100=



000
FTUS41 KRNK 040700 AAA
TAFROA
TAF AMD
KROA 040700Z 0407/0506 27008KT P6SM BKN100
     FM041300 31010KT P6SM BKN120
     FM042000 32008KT P6SM OVC100=



000
FTUS41 KRNK 040557 AAA
TAFDAN
TAF AMD
KDAN 040557Z 0406/0506 22005KT 1/2SM FG OVC002
      TEMPO 0408/0411 3SM BR OVC005
     FM041100 32006KT P6SM BKN040
     FM041500 35010KT P6SM -RA OVC040=



000
FTUS41 KRNK 040557 AAA
TAFDAN
TAF AMD
KDAN 040557Z 0406/0506 22005KT 1/2SM FG OVC002
      TEMPO 0408/0411 3SM BR OVC005
     FM041100 32006KT P6SM BKN040
     FM041500 35010KT P6SM -RA OVC040=



000
FTUS41 KRNK 040520
TAFDAN
TAF
KDAN 040520Z 0406/0506 20005KT 6SM BR OVC007
      TEMPO 0406/0409 3SM BR OVC005
     FM041100 32006KT P6SM BKN040
     FM041500 35010KT P6SM -RA OVC040=



000
FTUS41 KRNK 040520
TAFROA
TAF
KROA 040520Z 0406/0506 00000KT 1/4SM FG VV002
     FM040900 31006KT P6SM BKN025
     FM041300 31010KT P6SM BKN120
     FM042000 32008KT P6SM OVC100=



000
FTUS41 KRNK 040520
TAFLYH
TAF
KLYH 040520Z 0406/0506 00000KT 1/2SM FG VV002
     FM041100 34005KT P6SM BKN040
     FM041600 35006KT P6SM OVC100
     FM042300 01006KT P6SM OVC050=



000
FTUS41 KRNK 040520
TAFROA
TAF
KROA 040520Z 0406/0506 00000KT 1/4SM FG VV002
     FM040900 31006KT P6SM BKN025
     FM041300 31010KT P6SM BKN120
     FM042000 32008KT P6SM OVC100=



000
FTUS41 KRNK 040520
TAFDAN
TAF
KDAN 040520Z 0406/0506 20005KT 6SM BR OVC007
      TEMPO 0406/0409 3SM BR OVC005
     FM041100 32006KT P6SM BKN040
     FM041500 35010KT P6SM -RA OVC040=



000
FTUS41 KRNK 040520
TAFBLF
TAF
KBLF 040520Z 0406/0506 26010KT P6SM BKN035
     FM040800 29008KT P6SM SCT005 OVC015
     FM041300 29008KT P6SM -DZSN OVC015
     FM042300 32008KT 6SM -SN OVC005=



000
FTUS41 KRNK 040520
TAFLWB
TAF
KLWB 040520Z 0406/0506 VRB03KT P6SM SCT040
     FM040800 30003KT 3SM BR SCT005 OVC012
     FM041500 31006KT P6SM -RA OVC025
     FM042300 32003KT P6SM -SN OVC015=



000
FTUS41 KRNK 040520
TAFROA
TAF
KROA 040520Z 0406/0506 24005KT 1/4SM FG VV002
     FM041100 VRB04KT 3SM BR OVC004
     FM041500 30009KT P6SM SCT035 BKN100
     FM041800 31008KT P6SM OVC100=



000
FTUS41 KRNK 040058 AAA
TAFLWB
TAF AMD
KLWB 040058Z 0401/0424 VRB02KT 1/2SM FG OVC001
     FM041100 VRB02KT 2SM BR OVC005
     FM041300 29006KT P6SM -SN OVC015
     FM041500 30010KT P6SM BKN030=



000
FTUS41 KRNK 040058 AAA
TAFLWB
TAF AMD
KLWB 040058Z 0401/0424 VRB02KT 1/2SM FG OVC001
     FM041100 VRB02KT 2SM BR OVC005
     FM041300 29006KT P6SM -SN OVC015
     FM041500 30010KT P6SM BKN030=



000
FTUS41 KRNK 040058 AAA
TAFLWB
TAF AMD
KLWB 040058Z 0401/0424 VRB02KT 1/2SM FG OVC001
     FM041100 VRB02KT 2SM BR OVC005
     FM041300 29006KT P6SM -SN OVC015
     FM041500 30010KT P6SM BKN030=



000
FTUS41 KRNK 040056 AAA
TAFROA
TAF AMD
KROA 040056Z 0401/0424 24005KT 1/4SM FG VV002
     FM041100 VRB04KT 3SM BR OVC004
     FM041500 30009KT P6SM SCT035 BKN100
     FM041800 31008KT P6SM OVC100=



000
FTUS41 KRNK 040056 AAA
TAFROA
TAF AMD
KROA 040056Z 0401/0424 24005KT 1/4SM FG VV002
     FM041100 VRB04KT 3SM BR OVC004
     FM041500 30009KT P6SM SCT035 BKN100
     FM041800 31008KT P6SM OVC100=



000
FTUS41 KRNK 040056 AAA
TAFROA
TAF AMD
KROA 040056Z 0401/0424 24005KT 1/4SM FG VV002
     FM041100 VRB04KT 3SM BR OVC004
     FM041500 30009KT P6SM SCT035 BKN100
     FM041800 31008KT P6SM OVC100=



000
FTUS41 KRNK 032328
TAFBLF
TAF
KBLF 032328Z 0400/0424 22010KT P6SM SCT030
     FM040600 29010G16KT P6SM SCT007 BKN012
     FM041300 29008KT 5SM -DZSN BR OVC005
     FM042000 31007KT P6SM OVC050=



000
FTUS41 KRNK 032328
TAFLYH
TAF
KLYH 032328Z 0400/0424 00000KT 1/4SM FG VV002
     FM041400 34006KT P6SM SCT035 BKN100
     FM041800 33005KT 6SM BR SCT250
     FM042200 35004KT P6SM OVC050=



000
FTUS41 KRNK 032328
TAFROA
TAF
KROA 032328Z 0400/0424 24005KT 6SM BR OVC004
     FM040300 29004KT 6SM BR OVC004
     FM041500 30009KT P6SM SCT035 BKN100
     FM041800 31008KT P6SM OVC100=



000
FTUS41 KRNK 032328
TAFLWB
TAF
KLWB 032328Z 0400/0424 VRB02KT 3/4SM BR VV005
     FM041100 VRB02KT 2SM BR OVC005
     FM041300 29006KT P6SM -SN OVC015
     FM041500 30010KT P6SM BKN030=



000
FTUS41 KRNK 032328
TAFLYH
TAF
KLYH 032328Z 0400/0424 00000KT 1/4SM FG VV002
     FM041400 34006KT P6SM SCT035 BKN100
     FM041800 33005KT 6SM BR SCT250
     FM042200 35004KT P6SM OVC050=



000
FTUS41 KRNK 032328
TAFDAN
TAF
KDAN 032328Z 0400/0424 VRB04KT P6SM BKN008 OVC120
     FM040500 24006KT 3SM BR BKN005 OVC019
     FM041200 33007KT P6SM BKN035
     FM041900 36006KT 6SM BR OVC050=



000
FTUS41 KRNK 032328
TAFLWB
TAF
KLWB 032328Z 0400/0424 VRB02KT 3/4SM BR VV005
     FM041100 VRB02KT 2SM BR OVC005
     FM041300 29006KT P6SM -SN OVC015
     FM041500 30010KT P6SM BKN030=



000
FTUS41 KRNK 032328
TAFROA
TAF
KROA 032328Z 0400/0424 24005KT 6SM BR OVC004
     FM040300 29004KT 6SM BR OVC004
     FM041500 30009KT P6SM SCT035 BKN100
     FM041800 31008KT P6SM OVC100=



000
FTUS41 KRNK 032328
TAFBLF
TAF
KBLF 032328Z 0400/0424 22010KT P6SM SCT030
     FM040600 29010G16KT P6SM SCT007 BKN012
     FM041300 29008KT 5SM -DZSN BR OVC005
     FM042000 31007KT P6SM OVC050=



000
FTUS41 KRNK 032328
TAFDAN
TAF
KDAN 032328Z 0400/0424 VRB04KT P6SM BKN008 OVC120
     FM040500 24006KT 3SM BR BKN005 OVC019
     FM041200 33007KT P6SM BKN035
     FM041900 36006KT 6SM BR OVC050=



000
FTUS41 KRNK 032328
TAFLYH
TAF
KLYH 032328Z 0400/0424 00000KT 1/4SM FG VV002
     FM041400 34006KT P6SM SCT035 BKN100
     FM041800 33005KT 6SM BR SCT250
     FM042200 35004KT P6SM OVC050=



000
FTUS41 KRNK 032328
TAFROA
TAF
KROA 032328Z 0400/0424 24005KT 6SM BR OVC004
     FM040300 29004KT 6SM BR OVC004
     FM041500 30009KT P6SM SCT035 BKN100
     FM041800 31008KT P6SM OVC100=



000
FTUS41 KRNK 032328
TAFBLF
TAF
KBLF 032328Z 0400/0424 22010KT P6SM SCT030
     FM040600 29010G16KT P6SM SCT007 BKN012
     FM041300 29008KT 5SM -DZSN BR OVC005
     FM042000 31007KT P6SM OVC050=



000
FTUS41 KRNK 032328
TAFLWB
TAF
KLWB 032328Z 0400/0424 VRB02KT 3/4SM BR VV005
     FM041100 VRB02KT 2SM BR OVC005
     FM041300 29006KT P6SM -SN OVC015
     FM041500 30010KT P6SM BKN030=



000
FTUS41 KRNK 032328
TAFDAN
TAF
KDAN 032328Z 0400/0424 VRB04KT P6SM BKN008 OVC120
     FM040500 24006KT 3SM BR BKN005 OVC019
     FM041200 33007KT P6SM BKN035
     FM041900 36006KT 6SM BR OVC050=



000
FTUS41 KRNK 032205 AAA
TAFLYH
TAF AMD
KLYH 032205Z 0322/0418 00000KT 1/4SM FG VV002
     FM032300 22005KT 2SM -SHRA BR SCT005 OVC035
      TEMPO 0323/0402 2SM -SHRA BKN005 OVC030
     FM040600 30005KT P6SM BKN035
     FM041500 30010G18KT P6SM SCT035 BKN100=



000
FTUS41 KRNK 032059 AAA
TAFDAN
TAF AMD
KDAN 032059Z 0321/0418 VRB04KT P6SM SCT004 SCT015 OVC120
      TEMPO 0321/0323 4SM -SHRA BR BKN004 BKN015
     FM032300 22005KT P6SM -SHRA SCT005 BKN035
      TEMPO 0323/0402 3SM -SHRA BR BKN005 OVC030
     FM040600 32005KT P6SM BKN035
     FM041500 36010G18KT P6SM SCT035 BKN100=



000
FTUS41 KRNK 032056 AAB
TAFLWB
TAF AMD
KLWB 032056Z 0321/0418 VRB04KT P6SM SCT005 SCT015
      TEMPO 0321/0324 2SM BR OVC015
     FM040000 VRB03KT 1SM -SHRA BR OVC005
     FM040800 29006KT P6SM -SHSN OVC015
     FM041500 30010KT P6SM BKN025=



000
FTUS41 KRNK 031941 AAA
TAFROA
TAF AMD
KROA 031941Z 0320/0418 24007KT P6SM -SHRA BKN004 BKN035
      TEMPO 0320/0323 4SM -SHRA BR
     FM040300 31006KT P6SM BKN035
     FM040900 31007KT P6SM BKN050
     FM041500 30012G22KT P6SM SCT035 BKN100=



000
FTUS41 KRNK 031855 AAA
TAFLWB
TAF AMD
KLWB 031855Z 0319/0418 VRB04KT 1/4SM -SHRA FG OVC001
      TEMPO 0320/0324 2SM BR OVC015
     FM040000 VRB03KT 1SM -SHRA BR OVC005
     FM040800 29006KT P6SM -SHSN OVC015
     FM041500 30010KT P6SM BKN025=



000
FTUS41 KRNK 031855 AAA
TAFLWB
TAF AMD
KLWB 031855Z 0319/0418 VRB04KT 1/4SM -SHRA FG OVC001
      TEMPO 0320/0324 2SM BR OVC015
     FM040000 VRB03KT 1SM -SHRA BR OVC005
     FM040800 29006KT P6SM -SHSN OVC015
     FM041500 30010KT P6SM BKN025=



000
FTUS41 KRNK 031855 AAA
TAFLWB
TAF AMD
KLWB 031855Z 0319/0418 VRB04KT 1/4SM -SHRA FG OVC001
      TEMPO 0320/0324 2SM BR OVC015
     FM040000 VRB03KT 1SM -SHRA BR OVC005
     FM040800 29006KT P6SM -SHSN OVC015
     FM041500 30010KT P6SM BKN025=



000
FTUS41 KRNK 031720
TAFLWB
TAF
KLWB 031720Z 0318/0418 23012G22KT 5SM -SHRA BR SCT005 SCT015 BKN035
      TEMPO 0320/0324 2SM BR OVC015
     FM040000 VRB03KT 1SM -SHRA BR OVC005
     FM040800 29006KT P6SM -SHSN OVC015
     FM041500 30010KT P6SM BKN025=



000
FTUS41 KRNK 031720
TAFBLF
TAF
KBLF 031720Z 0318/0418 23012G22KT P6SM -SHRA SCT015 BKN050
      TEMPO 0320/0324 OVC015
     FM040000 27010KT P6SM -SHRA SCT007 BKN012
     FM040800 30010G20KT 5SM -SHSN BR OVC007
     FM041500 30012G22KT P6SM BKN015=



000
FTUS41 KRNK 031720
TAFLYH
TAF
KLYH 031720Z 0318/0418 VRB04KT 3SM SHRA BR SCT004 BKN015
      TEMPO 0318/0322 2SM -SHRA BR BKN004
     FM032200 22005KT 4SM -SHRA BR SCT005 OVC035
      TEMPO 0322/0402 2SM -SHRA BKN005 OVC030
     FM040600 30005KT P6SM BKN035
     FM041500 30010G18KT P6SM SCT035 BKN100=



000
FTUS41 KRNK 031720
TAFROA
TAF
KROA 031720Z 0318/0418 24007KT 3SM -SHRA BR SCT004 BKN035
      TEMPO 0323/0403 P6SM -SHRA SCT005 OVC030
     FM040300 31006KT P6SM BKN035
     FM040900 31007KT P6SM BKN050
     FM041500 30012G22KT P6SM SCT035 BKN100=



000
FTUS41 KRNK 031720
TAFDAN
TAF
KDAN 031720Z 0318/0418 VRB04KT 3SM SHRA BR SCT004 BKN015
      TEMPO 0318/0322 2SM -SHRA BR BKN004
     FM032200 22005KT 4SM -SHRA BR SCT005 BKN035
      TEMPO 0322/0402 2SM -SHRA BR BKN005 OVC030
     FM040600 32005KT P6SM BKN035
     FM041500 36010G18KT P6SM SCT035 BKN100=



000
FTUS41 KRNK 031720
TAFLWB
TAF
KLWB 031720Z 0318/0418 23012G22KT 5SM -SHRA BR SCT005 SCT015 BKN035
      TEMPO 0320/0324 2SM BR OVC015
     FM040000 VRB03KT 1SM -SHRA BR OVC005
     FM040800 29006KT P6SM -SHSN OVC015
     FM041500 30010KT P6SM BKN025=



000
FTUS41 KRNK 031720
TAFBLF
TAF
KBLF 031720Z 0318/0418 23012G22KT P6SM -SHRA SCT015 BKN050
      TEMPO 0320/0324 OVC015
     FM040000 27010KT P6SM -SHRA SCT007 BKN012
     FM040800 30010G20KT 5SM -SHSN BR OVC007
     FM041500 30012G22KT P6SM BKN015=



000
FTUS41 KRNK 031720
TAFLWB
TAF
KLWB 031720Z 0318/0418 23012G22KT 5SM -SHRA BR SCT005 SCT015 BKN035
      TEMPO 0320/0324 2SM BR OVC015
     FM040000 VRB03KT 1SM -SHRA BR OVC005
     FM040800 29006KT P6SM -SHSN OVC015
     FM041500 30010KT P6SM BKN025=



000
FTUS41 KRNK 031720
TAFBLF
TAF
KBLF 031720Z 0318/0418 23012G22KT P6SM -SHRA SCT015 BKN050
      TEMPO 0320/0324 OVC015
     FM040000 27010KT P6SM -SHRA SCT007 BKN012
     FM040800 30010G20KT 5SM -SHSN BR OVC007
     FM041500 30012G22KT P6SM BKN015=



000
FTUS41 KRNK 031615 AAC
TAFLYH
TAF AMD
KLYH 031615Z 0316/0412 VRB04KT 1/2SM -RA FG OVC002 WS015/21047KT
     FM031700 18011G20KT 3SM RA BR SCT005 BKN015
     FM032200 22007KT 5SM -SHRA BR OVC008
     FM040200 23005KT 5SM BR OVC015
     FM040500 28004KT 5SM BR BKN020=



000
FTUS41 KRNK 031615 AAC
TAFLYH
TAF AMD
KLYH 031615Z 0316/0412 VRB04KT 1/2SM -RA FG OVC002 WS015/21047KT
     FM031700 18011G20KT 3SM RA BR SCT005 BKN015
     FM032200 22007KT 5SM -SHRA BR OVC008
     FM040200 23005KT 5SM BR OVC015
     FM040500 28004KT 5SM BR BKN020=



000
FTUS41 KRNK 031615 AAC
TAFLYH
TAF AMD
KLYH 031615Z 0316/0412 VRB04KT 1/2SM -RA FG OVC002 WS015/21047KT
     FM031700 18011G20KT 3SM RA BR SCT005 BKN015
     FM032200 22007KT 5SM -SHRA BR OVC008
     FM040200 23005KT 5SM BR OVC015
     FM040500 28004KT 5SM BR BKN020=



000
FTUS41 KRNK 031602 AAC
TAFBLF
TAF AMD
KBLF 031602Z 0316/0412 21013G23KT P6SM -SHRA SCT015 BKN050
      WS017/26048KT
      TEMPO 0316/0320 3SM -SHRA BR BKN015
     FM032000 26007KT P6SM -SHRA BKN035
     FM040700 26010KT P6SM OVC015=



000
FTUS41 KRNK 031550 AAC
TAFLWB
TAF AMD
KLWB 031550Z 0316/0412 20009KT 1/2SM -SHRA FG BKN005 OVC010
      WS012/22040KT
     FM032100 24005KT P6SM BKN025
     FM040300 28006KT P6SM OVC050
     FM040600 30004KT P6SM OVC030=



000
FTUS41 KRNK 031550 AAC
TAFLWB
TAF AMD
KLWB 031550Z 0316/0412 20009KT 1/2SM -SHRA FG BKN005 OVC010
      WS012/22040KT
     FM032100 24005KT P6SM BKN025
     FM040300 28006KT P6SM OVC050
     FM040600 30004KT P6SM OVC030=



000
FTUS41 KRNK 031550 AAC
TAFLWB
TAF AMD
KLWB 031550Z 0316/0412 20009KT 1/2SM -SHRA FG BKN005 OVC010
      WS012/22040KT
     FM032100 24005KT P6SM BKN025
     FM040300 28006KT P6SM OVC050
     FM040600 30004KT P6SM OVC030=



000
FTUS41 KRNK 031522 AAB
TAFLYH
TAF AMD
KLYH 031522Z 0315/0412 VRB04KT 1/2SM -SHRA FG OVC002 WS015/19042KT
     FM031600 15008G16KT P6SM -RA OVC004 WS015/21047KT
      TEMPO 0316/0318 3SM -RA BR OVC014
     FM031800 18011G20KT 3SM RA BR OVC004
     FM032200 22007KT 5SM -SHRA BR OVC008
     FM040200 23005KT 5SM BR OVC015
     FM040500 28004KT 5SM BR BKN020=



000
FTUS41 KRNK 031459 AAA
TAFROA
TAF AMD
KROA 031459Z 0315/0412 VRB04KT 2SM -RA BR OVC003 WS017/18036KT
     FM031600 15004KT 2SM +RA BR SCT005 OVC012 WS017/19035KT
     FM031800 20007KT 4SM -SHRA BR OVC013
     FM040000 26005KT 4SM BR OVC007
     FM040200 31006KT P6SM BKN015=



000
FTUS41 KRNK 031405 AAA
TAFDAN
TAF AMD
KDAN 031405Z 0314/0412 VRB04KT 2SM -DZ BR OVC002 WS015/19040KT
     FM031600 18010G16KT P6SM -RA OVC009 WS017/20045KT
     FM031800 19012G20KT 3SM SHRA BR OVC009
     FM032300 23008KT 3SM -SHRA BR OVC004
     FM040400 26005KT 4SM BR OVC015=



000
FTUS41 KRNK 031405 AAA
TAFDAN
TAF AMD
KDAN 031405Z 0314/0412 VRB04KT 2SM -DZ BR OVC002 WS015/19040KT
     FM031600 18010G16KT P6SM -RA OVC009 WS017/20045KT
     FM031800 19012G20KT 3SM SHRA BR OVC009
     FM032300 23008KT 3SM -SHRA BR OVC004
     FM040400 26005KT 4SM BR OVC015=



000
FTUS41 KRNK 031405 AAA
TAFDAN
TAF AMD
KDAN 031405Z 0314/0412 VRB04KT 2SM -DZ BR OVC002 WS015/19040KT
     FM031600 18010G16KT P6SM -RA OVC009 WS017/20045KT
     FM031800 19012G20KT 3SM SHRA BR OVC009
     FM032300 23008KT 3SM -SHRA BR OVC004
     FM040400 26005KT 4SM BR OVC015=



000
FTUS41 KRNK 031403 AAA
TAFLYH
TAF AMD
KLYH 031403Z 0314/0412 VRB04KT 1SM -DZ BR OVC002 WS015/19042KT
     FM031600 15009G17KT P6SM -RA OVC004 WS015/21047KT
      TEMPO 0316/0318 3SM -RA BR OVC014
     FM031800 18011G20KT 3SM RA BR OVC004
     FM032200 22007KT 5SM -SHRA BR OVC008
     FM040200 23005KT 5SM BR OVC015
     FM040500 28004KT 5SM BR BKN020=



000
FTUS41 KRNK 031353 AAA
TAFLWB
TAF AMD
KLWB 031353Z 0314/0412 VRB04KT 2SM +RA OVC010 WS014/18043KT
     FM031600 20009KT 3SM -SHRA BR OVC010 WS012/22040KT
     FM031800 24009KT 2SM -SHRA BR OVC014
     FM032100 24005KT P6SM BKN025
     FM040300 28006KT P6SM OVC050
     FM040600 30004KT P6SM OVC030=



000
FTUS41 KRNK 031351 AAA
TAFBLF
TAF AMD
KBLF 031351Z 0314/0412 VRB04KT 2SM +RA SCT007 OVC015 WS017/19055KT
     FM031500 21013G23KT 4SM SHRA BR OVC013 WS017/26048KT
     FM031700 24009KT 4SM -SHRA BR OVC015
     FM032200 26007KT P6SM BKN030
     FM040700 26010KT P6SM OVC015=



000
FTUS41 KRNK 031140
TAFLYH
TAF
KLYH 031140Z 0312/0412 05007KT 4SM -DZ BR OVC005 WS015/19042KT
      TEMPO 0312/0314 2SM BR OVC003
     FM031600 15009G17KT P6SM -RA OVC004 WS015/21047KT
      TEMPO 0316/0318 3SM -RA BR OVC014
     FM031800 18011G20KT 3SM RA BR OVC004
     FM032200 22007KT 5SM -SHRA BR OVC008
     FM040200 23005KT 5SM BR OVC015
     FM040500 28004KT 5SM BR BKN020=



000
FTUS41 KRNK 031140
TAFLWB
TAF
KLWB 031140Z 0312/0412 16008KT P6SM -RA OVC010 WS014/18043KT
      TEMPO 0312/0314 2SM -RA BR OVC017
     FM031500 20009KT 3SM SHRA BR OVC010 WS012/22040KT
     FM031800 24009KT 2SM -SHRA BR OVC014
     FM032100 24005KT P6SM BKN025
     FM040300 28006KT P6SM OVC050
     FM040600 30004KT P6SM OVC030=



000
FTUS41 KRNK 031140
TAFROA
TAF
KROA 031140Z 0312/0412 12003KT 4SM -RA BR OVC004 WS017/18036KT
      TEMPO 0312/0314 1SM -RA BR
     FM031700 17007KT 3SM RA BR OVC007
     FM032100 20007KT 4SM -SHRA BR OVC013
     FM040000 26005KT 4SM BR OVC007
     FM040200 31006KT P6SM BKN015=



000
FTUS41 KRNK 031140
TAFLWB
TAF
KLWB 031140Z 0312/0412 16008KT P6SM -RA OVC010 WS014/18043KT
      TEMPO 0312/0314 2SM -RA BR OVC017
     FM031500 20009KT 3SM SHRA BR OVC010 WS012/22040KT
     FM031800 24009KT 2SM -SHRA BR OVC014
     FM032100 24005KT P6SM BKN025
     FM040300 28006KT P6SM OVC050
     FM040600 30004KT P6SM OVC030=



000
FTUS41 KRNK 031140
TAFROA
TAF
KROA 031140Z 0312/0412 12003KT 4SM -RA BR OVC004 WS017/18036KT
      TEMPO 0312/0314 1SM -RA BR
     FM031700 17007KT 3SM RA BR OVC007
     FM032100 20007KT 4SM -SHRA BR OVC013
     FM040000 26005KT 4SM BR OVC007
     FM040200 31006KT P6SM BKN015=



000
FTUS41 KRNK 031140
TAFBLF
TAF
KBLF 031140Z 0312/0412 17014G22KT P6SM -SHRA SCT007 OVC013
      WS017/19055KT
      TEMPO 0312/0313 2SM -SHRA BR OVC007
     FM031500 21013G23KT 4SM SHRA BR OVC013 WS017/26048KT
     FM031700 24009KT 4SM -SHRA BR OVC015
     FM032200 26007KT P6SM BKN030
     FM040700 26010KT P6SM OVC015=



000
FTUS41 KRNK 031140
TAFDAN
TAF
KDAN 031140Z 0312/0412 15004KT 4SM -DZ BR OVC006 WS015/19040KT
      TEMPO 0312/0314 2SM -RA BR OVC004
     FM031500 18010G16KT P6SM -RA OVC009 WS017/20045KT
     FM031800 19012G20KT 3SM SHRA BR OVC009
     FM032300 23008KT 3SM -SHRA BR OVC004
     FM040400 26005KT 4SM BR OVC015=



000
FTUS41 KRNK 031140
TAFDAN
TAF
KDAN 031140Z 0312/0412 15004KT 4SM -DZ BR OVC006 WS015/19040KT
      TEMPO 0312/0314 2SM -RA BR OVC004
     FM031500 18010G16KT P6SM -RA OVC009 WS017/20045KT
     FM031800 19012G20KT 3SM SHRA BR OVC009
     FM032300 23008KT 3SM -SHRA BR OVC004
     FM040400 26005KT 4SM BR OVC015=



000
FTUS41 KRNK 031140
TAFLYH
TAF
KLYH 031140Z 0312/0412 05007KT 4SM -DZ BR OVC005 WS015/19042KT
      TEMPO 0312/0314 2SM BR OVC003
     FM031600 15009G17KT P6SM -RA OVC004 WS015/21047KT
      TEMPO 0316/0318 3SM -RA BR OVC014
     FM031800 18011G20KT 3SM RA BR OVC004
     FM032200 22007KT 5SM -SHRA BR OVC008
     FM040200 23005KT 5SM BR OVC015
     FM040500 28004KT 5SM BR BKN020=



000
FTUS41 KRNK 031140
TAFBLF
TAF
KBLF 031140Z 0312/0412 17014G22KT P6SM -SHRA SCT007 OVC013
      WS017/19055KT
      TEMPO 0312/0313 2SM -SHRA BR OVC007
     FM031500 21013G23KT 4SM SHRA BR OVC013 WS017/26048KT
     FM031700 24009KT 4SM -SHRA BR OVC015
     FM032200 26007KT P6SM BKN030
     FM040700 26010KT P6SM OVC015=



000
FTUS41 KRNK 031140
TAFLWB
TAF
KLWB 031140Z 0312/0412 16008KT P6SM -RA OVC010 WS014/18043KT
      TEMPO 0312/0314 2SM -RA BR OVC017
     FM031500 20009KT 3SM SHRA BR OVC010 WS012/22040KT
     FM031800 24009KT 2SM -SHRA BR OVC014
     FM032100 24005KT P6SM BKN025
     FM040300 28006KT P6SM OVC050
     FM040600 30004KT P6SM OVC030=



000
FTUS41 KRNK 031140
TAFROA
TAF
KROA 031140Z 0312/0412 12003KT 4SM -RA BR OVC004 WS017/18036KT
      TEMPO 0312/0314 1SM -RA BR
     FM031700 17007KT 3SM RA BR OVC007
     FM032100 20007KT 4SM -SHRA BR OVC013
     FM040000 26005KT 4SM BR OVC007
     FM040200 31006KT P6SM BKN015=



000
FTUS41 KRNK 031140
TAFDAN
TAF
KDAN 031140Z 0312/0412 15004KT 4SM -DZ BR OVC006 WS015/19040KT
      TEMPO 0312/0314 2SM -RA BR OVC004
     FM031500 18010G16KT P6SM -RA OVC009 WS017/20045KT
     FM031800 19012G20KT 3SM SHRA BR OVC009
     FM032300 23008KT 3SM -SHRA BR OVC004
     FM040400 26005KT 4SM BR OVC015=



000
FTUS41 KRNK 031140
TAFLYH
TAF
KLYH 031140Z 0312/0412 05007KT 4SM -DZ BR OVC005 WS015/19042KT
      TEMPO 0312/0314 2SM BR OVC003
     FM031600 15009G17KT P6SM -RA OVC004 WS015/21047KT
      TEMPO 0316/0318 3SM -RA BR OVC014
     FM031800 18011G20KT 3SM RA BR OVC004
     FM032200 22007KT 5SM -SHRA BR OVC008
     FM040200 23005KT 5SM BR OVC015
     FM040500 28004KT 5SM BR BKN020=



000
FTUS41 KRNK 031140
TAFBLF
TAF
KBLF 031140Z 0312/0412 17014G22KT P6SM -SHRA SCT007 OVC013
      WS017/19055KT
      TEMPO 0312/0313 2SM -SHRA BR OVC007
     FM031500 21013G23KT 4SM SHRA BR OVC013 WS017/26048KT
     FM031700 24009KT 4SM -SHRA BR OVC015
     FM032200 26007KT P6SM BKN030
     FM040700 26010KT P6SM OVC015=



000
FTUS41 KRNK 030520
TAFDAN
TAF
KDAN 030520Z 0306/0406 08003KT P6SM OVC020
     FM030900 14005KT 4SM -DZ BR OVC006
     FM031800 19011G18KT 2SM RA BR OVC003
     FM032300 21008KT 4SM -RA BR OVC005
     FM040300 26005KT 4SM BR OVC025=



000
FTUS41 KRNK 030520
TAFLYH
TAF
KLYH 030520Z 0306/0406 09006KT P6SM OVC023
     FM030900 10005KT 4SM -DZ BR OVC007
     FM031300 13005KT 2SM -RA BR OVC004
     FM031800 17010G17KT 2SM RA BR OVC003
     FM032200 21006KT 4SM -RA BR OVC005
     FM040200 23004KT P6SM OVC025=



000
FTUS41 KRNK 030520
TAFLYH
TAF
KLYH 030520Z 0306/0406 09006KT P6SM OVC023
     FM030900 10005KT 4SM -DZ BR OVC007
     FM031300 13005KT 2SM -RA BR OVC004
     FM031800 17010G17KT 2SM RA BR OVC003
     FM032200 21006KT 4SM -RA BR OVC005
     FM040200 23004KT P6SM OVC025=



000
FTUS41 KRNK 030520
TAFLWB
TAF
KLWB 030520Z 0306/0406 10006KT P6SM OVC012
     FM030700 15008KT 4SM BR OVC005 WS020/18045KT
     FM031200 15008KT 2SM RA BR OVC003
     FM031800 21006KT 2SM -RA BR OVC005
     FM032300 24005KT P6SM OVC025
     FM040300 28006KT P6SM OVC050=



000
FTUS41 KRNK 030520
TAFLYH
TAF
KLYH 030520Z 0306/0406 09006KT P6SM OVC023
     FM030900 10005KT 4SM -DZ BR OVC007
     FM031300 13005KT 2SM -RA BR OVC004
     FM031800 17010G17KT 2SM RA BR OVC003
     FM032200 21006KT 4SM -RA BR OVC005
     FM040200 23004KT P6SM OVC025=



000
FTUS41 KRNK 030520
TAFLWB
TAF
KLWB 030520Z 0306/0406 10006KT P6SM OVC012
     FM030700 15008KT 4SM BR OVC005 WS020/18045KT
     FM031200 15008KT 2SM RA BR OVC003
     FM031800 21006KT 2SM -RA BR OVC005
     FM032300 24005KT P6SM OVC025
     FM040300 28006KT P6SM OVC050=



000
FTUS41 KRNK 030520
TAFROA
TAF
KROA 030520Z 0306/0406 16006KT P6SM OVC020
     FM030700 13005KT 4SM -DZ BR SCT006 OVC014
     FM030900 11006KT 2SM -RA BR OVC006 WS020/17046KT
     FM031200 11006KT 1SM RA BR OVC004
     FM031900 19010G17KT 4SM -RA BR OVC010
     FM040100 27007KT P6SM SCT050 OVC100=



000
FTUS41 KRNK 030520
TAFBLF
TAF
KBLF 030520Z 0306/0406 16014G26KT P6SM OVC005
     FM030800 16016G24KT 4SM -RA BR OVC009
     FM031200 16015G25KT 2SM RA BR OVC003
     FM031800 24010G17KT 4SM -RA BR OVC010
     FM040200 26010KT P6SM BKN050=



000
FTUS41 KRNK 030520
TAFLWB
TAF
KLWB 030520Z 0306/0406 10006KT P6SM OVC012
     FM030700 15008KT 4SM BR OVC005 WS020/18045KT
     FM031200 15008KT 2SM RA BR OVC003
     FM031800 21006KT 2SM -RA BR OVC005
     FM032300 24005KT P6SM OVC025
     FM040300 28006KT P6SM OVC050=



000
FTUS41 KRNK 022338
TAFLYH
TAF
KLYH 022338Z 0300/0324 05007KT P6SM OVC030
     FM030800 10005KT 4SM -RA BR OVC007
     FM031300 13005KT 2SM -RA BR OVC004
     FM031800 17010G17KT 2SM RA BR OVC003
     FM032200 21006KT 4SM -RA BR OVC005=



000
FTUS41 KRNK 022338
TAFBLF
TAF
KBLF 022338Z 0300/0324 15012G20KT 3SM BR OVC003
     FM030800 16015G22KT 4SM -RA BR OVC014
     FM031200 16015G25KT 2SM RA BR OVC003
     FM031800 24010G17KT 4SM -RA BR OVC010=



000
FTUS41 KRNK 022338
TAFROA
TAF
KROA 022338Z 0300/0324 12006KT P6SM OVC025
     FM030100 13005KT 4SM BR SCT006 OVC014
     FM030600 11006KT 2SM -RA BR OVC006
     FM031200 11006KT 1SM RA BR OVC004
     FM031900 19010G17KT 4SM -RA BR OVC010=



000
FTUS41 KRNK 022338
TAFLWB
TAF
KLWB 022338Z 0300/0324 10005KT P6SM OVC015
     FM030700 13008KT 4SM -RA BR OVC005
     FM031200 15008KT 2SM RA BR OVC003
     FM031800 21006KT 2SM -RA BR OVC005
     FM032300 24005KT P6SM OVC025=



000
FTUS41 KRNK 022338
TAFDAN
TAF
KDAN 022338Z 0300/0324 05006KT P6SM OVC030
     FM030300 12005KT P6SM OVC020
     FM030900 14005KT 4SM -RA BR OVC006
     FM031800 19011G18KT 2SM RA BR OVC003
     FM032300 21008KT 4SM -RA BR OVC005=



    US Dept of Commerce
    National Oceanic and Atmospheric Administration
    National Weather Service
    1325 East West Highway
    Silver Spring, MD 20910
    Page Author: NWS Internet Services Team
Disclaimer
Information Quality
Credits
Glossary
Privacy Policy
Freedom of Information Act (FOIA)
About Us
Career Opportunities